13.4°F
Current conditions from King Hill
Updated every 5 minutes
 
  Saturday December 20, 2014

Station Historical Data
Daily Summary for March 23, 2012 Units:  Both    English   Metric
« Previous Day
Next Day »
Daily Weekly Monthly Yearly Custom
  High: Low: Average:
Temperature: 64.1 °F /  17.8 °C 44.7 °F /  7.1 °C 53.5 °F /  11.9 °C
Dew Point: 48.2 °F /  9 °C 20.2 °F /  -6.6 °C 34.6 °F /  1.4 °C
Humidity: 85% 27% 53%
Wind Speed: 9.0mph /  14.5km/h - 2.6mph /  4.2km/h
Wind Gust: 19.0mph /  30.6km/h - -
Wind- - South
Pressure: 30.16 in /  1021.2 hPa 30.06 in /  1017.8 hPa -
Precipitation: 0.00 in /  0 mm    
Historical Graphs
 
 
Tabular Data for March 23, 2012
Time Temperature Dew Point Pressure Wind Wind Speed Wind Gust Humidity Daily Rainfall
00:04 56.4 °F /  13.6 °C 48.2 °F /  9 °C 30.06in /  1017.8hPa Calm   4.0mph /  6.4km/h 74% 0.00in /  0mm
00:09 56.1 °F /  13.4 °C 47.9 °F /  8.8 °C 30.07in /  1018.2hPa Calm   4.0mph /  6.4km/h 74% 0.00in /  0mm
00:14 55.8 °F /  13.2 °C 47.6 °F /  8.7 °C 30.06in /  1017.8hPa Calm   6.0mph /  9.7km/h 74% 0.00in /  0mm
00:19 55.7 °F /  13.2 °C 47.5 °F /  8.6 °C 30.07in /  1018.2hPa Calm   6.0mph /  9.7km/h 74% 0.00in /  0mm
00:24 55.4 °F /  13 °C 47.3 °F /  8.5 °C 30.07in /  1018.2hPa Calm   3.0mph /  4.8km/h 74% 0.00in /  0mm
00:29 55.0 °F /  12.8 °C 47.2 °F /  8.4 °C 30.07in /  1018.2hPa Calm     75% 0.00in /  0mm
00:34 54.2 °F /  12.3 °C 46.8 °F /  8.2 °C 30.08in /  1018.5hPa Calm     76% 0.00in /  0mm
00:40 53.6 °F /  12 °C 46.9 °F /  8.3 °C 30.07in /  1018.2hPa Calm     78% 0.00in /  0mm
00:49 52.7 °F /  11.5 °C 46.7 °F /  8.2 °C 30.08in /  1018.5hPa Calm     80% 0.00in /  0mm
00:54 52.6 °F /  11.4 °C 46.9 °F /  8.3 °C 30.07in /  1018.2hPa Calm   1.0mph /  1.6km/h 81% 0.00in /  0mm
00:59 52.7 °F /  11.5 °C 47.4 °F /  8.6 °C 30.08in /  1018.5hPa Calm   1.0mph /  1.6km/h 82% 0.00in /  0mm
01:04 52.6 °F /  11.4 °C 47.3 °F /  8.5 °C 30.08in /  1018.5hPa Calm     82% 0.00in /  0mm
01:09 52.4 °F /  11.3 °C 47.1 °F /  8.4 °C 30.08in /  1018.5hPa Calm   1.0mph /  1.6km/h 82% 0.00in /  0mm
01:14 52.2 °F /  11.2 °C 46.9 °F /  8.3 °C 30.08in /  1018.5hPa Calm   1.0mph /  1.6km/h 82% 0.00in /  0mm
01:19 52.1 °F /  11.2 °C 46.8 °F /  8.2 °C 30.08in /  1018.5hPa Calm   1.0mph /  1.6km/h 82% 0.00in /  0mm
01:24 52.2 °F /  11.2 °C 47.2 °F /  8.4 °C 30.08in /  1018.5hPa Calm     83% 0.00in /  0mm
01:30 52.4 °F /  11.3 °C 47.1 °F /  8.4 °C 30.08in /  1018.5hPa NNE 1.0mph /  1.6km/h 4.0mph /  6.4km/h 82% 0.00in /  0mm
01:39 52.8 °F /  11.6 °C 47.1 °F /  8.4 °C 30.08in /  1018.5hPa Calm   1.0mph /  1.6km/h 81% 0.00in /  0mm
01:44 52.9 °F /  11.6 °C 46.9 °F /  8.3 °C 30.08in /  1018.5hPa NNE 1.0mph /  1.6km/h 5.0mph /  8km/h 80% 0.00in /  0mm
01:49 52.8 °F /  11.6 °C 46.5 °F /  8.1 °C 30.08in /  1018.5hPa Calm   5.0mph /  8km/h 79% 0.00in /  0mm
01:54 52.5 °F /  11.4 °C 46.2 °F /  7.9 °C 30.09in /  1018.8hPa Calm   4.0mph /  6.4km/h 79% 0.00in /  0mm
01:59 52.3 °F /  11.3 °C 46.3 °F /  7.9 °C 30.09in /  1018.8hPa Calm   2.0mph /  3.2km/h 80% 0.00in /  0mm
02:04 52.4 °F /  11.3 °C 46.4 °F /  8 °C 30.09in /  1018.8hPa Calm   2.0mph /  3.2km/h 80% 0.00in /  0mm
02:09 52.5 °F /  11.4 °C 46.5 °F /  8.1 °C 30.08in /  1018.5hPa Calm   1.0mph /  1.6km/h 80% 0.00in /  0mm
02:14 52.5 °F /  11.4 °C 46.2 °F /  7.9 °C 30.08in /  1018.5hPa NNE 1.0mph /  1.6km/h 5.0mph /  8km/h 79% 0.00in /  0mm
02:19 52.4 °F /  11.3 °C 46.1 °F /  7.8 °C 30.09in /  1018.8hPa Calm   5.0mph /  8km/h 79% 0.00in /  0mm
02:24 52.3 °F /  11.3 °C 46.0 °F /  7.8 °C 30.09in /  1018.8hPa NNE 1.0mph /  1.6km/h 5.0mph /  8km/h 79% 0.00in /  0mm
02:29 52.0 °F /  11.1 °C 45.7 °F /  7.6 °C 30.09in /  1018.8hPa Calm   5.0mph /  8km/h 79% 0.00in /  0mm
02:34 51.8 °F /  11 °C 45.5 °F /  7.5 °C 30.09in /  1018.8hPa Calm   5.0mph /  8km/h 79% 0.00in /  0mm
02:39 51.6 °F /  10.9 °C 45.6 °F /  7.6 °C 30.09in /  1018.8hPa Calm   4.0mph /  6.4km/h 80% 0.00in /  0mm
02:44 51.6 °F /  10.9 °C 45.6 °F /  7.6 °C 30.08in /  1018.5hPa Calm   5.0mph /  8km/h 80% 0.00in /  0mm
02:49 51.5 °F /  10.8 °C 45.5 °F /  7.5 °C 30.09in /  1018.8hPa Calm   5.0mph /  8km/h 80% 0.00in /  0mm
02:54 51.4 °F /  10.8 °C 45.4 °F /  7.4 °C 30.08in /  1018.5hPa North 1.0mph /  1.6km/h 4.0mph /  6.4km/h 80% 0.00in /  0mm
02:59 51.2 °F /  10.7 °C 45.2 °F /  7.3 °C 30.08in /  1018.5hPa Calm   4.0mph /  6.4km/h 80% 0.00in /  0mm
03:04 51.0 °F /  10.6 °C 45.1 °F /  7.3 °C 30.09in /  1018.8hPa NNE 1.0mph /  1.6km/h 5.0mph /  8km/h 80% 0.00in /  0mm
03:09 50.8 °F /  10.4 °C 44.9 °F /  7.2 °C 30.09in /  1018.8hPa Calm   5.0mph /  8km/h 80% 0.00in /  0mm
03:14 50.7 °F /  10.4 °C 44.8 °F /  7.1 °C 30.09in /  1018.8hPa Calm   3.0mph /  4.8km/h 80% 0.00in /  0mm
03:19 50.5 °F /  10.3 °C 44.6 °F /  7 °C 30.09in /  1018.8hPa Calm   5.0mph /  8km/h 80% 0.00in /  0mm
03:24 50.4 °F /  10.2 °C 44.8 °F /  7.1 °C 30.09in /  1018.8hPa Calm   5.0mph /  8km/h 81% 0.00in /  0mm
03:29 50.2 °F /  10.1 °C 44.3 °F /  6.8 °C 30.09in /  1018.8hPa Calm   3.0mph /  4.8km/h 80% 0.00in /  0mm
03:34 50.1 °F /  10.1 °C 44.5 °F /  6.9 °C 30.09in /  1018.8hPa Calm   1.0mph /  1.6km/h 81% 0.00in /  0mm
03:39 50.1 °F /  10.1 °C 44.5 °F /  6.9 °C 30.10in /  1019.2hPa Calm   1.0mph /  1.6km/h 81% 0.00in /  0mm
03:44 50.1 °F /  10.1 °C 44.5 °F /  6.9 °C 30.09in /  1018.8hPa Calm   6.0mph /  9.7km/h 81% 0.00in /  0mm
03:49 49.9 °F /  9.9 °C 44.0 °F /  6.7 °C 30.09in /  1018.8hPa Calm   6.0mph /  9.7km/h 80% 0.00in /  0mm
03:54 49.7 °F /  9.8 °C 44.1 °F /  6.7 °C 30.09in /  1018.8hPa Calm     81% 0.00in /  0mm
03:59 49.4 °F /  9.7 °C 43.5 °F /  6.4 °C 30.09in /  1018.8hPa Calm     80% 0.00in /  0mm
04:04 49.2 °F /  9.6 °C 43.9 °F /  6.6 °C 30.10in /  1019.2hPa Calm   4.0mph /  6.4km/h 82% 0.00in /  0mm
04:09 49.1 °F /  9.5 °C 43.8 °F /  6.6 °C 30.10in /  1019.2hPa Calm   4.0mph /  6.4km/h 82% 0.00in /  0mm
04:14 49.1 °F /  9.5 °C 43.8 °F /  6.6 °C 30.10in /  1019.2hPa Calm   2.0mph /  3.2km/h 82% 0.00in /  0mm
04:19 49.1 °F /  9.5 °C 44.2 °F /  6.8 °C 30.10in /  1019.2hPa Calm   2.0mph /  3.2km/h 83% 0.00in /  0mm
04:24 49.2 °F /  9.6 °C 44.3 °F /  6.8 °C 30.10in /  1019.2hPa Calm   1.0mph /  1.6km/h 83% 0.00in /  0mm
04:30 49.2 °F /  9.6 °C 44.3 °F /  6.8 °C 30.10in /  1019.2hPa Calm   1.0mph /  1.6km/h 83% 0.00in /  0mm
04:39 49.2 °F /  9.6 °C 44.3 °F /  6.8 °C 30.10in /  1019.2hPa NNE 2.0mph /  3.2km/h 7.0mph /  11.3km/h 83% 0.00in /  0mm
04:44 49.3 °F /  9.6 °C 44.4 °F /  6.9 °C 30.10in /  1019.2hPa Calm   7.0mph /  11.3km/h 83% 0.00in /  0mm
04:49 49.4 °F /  9.7 °C 44.5 °F /  6.9 °C 30.11in /  1019.5hPa Calm   5.0mph /  8km/h 83% 0.00in /  0mm
04:54 49.2 °F /  9.6 °C 43.9 °F /  6.6 °C 30.10in /  1019.2hPa Calm   3.0mph /  4.8km/h 82% 0.00in /  0mm
04:59 49.0 °F /  9.4 °C 44.1 °F /  6.7 °C 30.11in /  1019.5hPa Calm   4.0mph /  6.4km/h 83% 0.00in /  0mm
05:04 48.8 °F /  9.3 °C 43.9 °F /  6.6 °C 30.11in /  1019.5hPa Calm   4.0mph /  6.4km/h 83% 0.00in /  0mm
05:09 48.5 °F /  9.2 °C 43.6 °F /  6.4 °C 30.11in /  1019.5hPa Calm   4.0mph /  6.4km/h 83% 0.00in /  0mm
05:14 48.3 °F /  9.1 °C 43.4 °F /  6.3 °C 30.11in /  1019.5hPa Calm   2.0mph /  3.2km/h 83% 0.00in /  0mm
05:19 48.1 °F /  8.9 °C 43.5 °F /  6.4 °C 30.11in /  1019.5hPa Calm   3.0mph /  4.8km/h 84% 0.00in /  0mm
05:24 47.9 °F /  8.8 °C 43.3 °F /  6.3 °C 30.11in /  1019.5hPa Calm   3.0mph /  4.8km/h 84% 0.00in /  0mm
05:29 47.8 °F /  8.8 °C 43.2 °F /  6.2 °C 30.11in /  1019.5hPa NNE 1.0mph /  1.6km/h 4.0mph /  6.4km/h 84% 0.00in /  0mm
05:34 47.9 °F /  8.8 °C 43.3 °F /  6.3 °C 30.11in /  1019.5hPa North 1.0mph /  1.6km/h 5.0mph /  8km/h 84% 0.00in /  0mm
05:39 47.7 °F /  8.7 °C 43.1 °F /  6.2 °C 30.12in /  1019.9hPa Calm   5.0mph /  8km/h 84% 0.00in /  0mm
05:44 47.4 °F /  8.6 °C 42.8 °F /  6 °C 30.12in /  1019.9hPa Calm   4.0mph /  6.4km/h 84% 0.00in /  0mm
05:49 47.3 °F /  8.5 °C 43.0 °F /  6.1 °C 30.12in /  1019.9hPa Calm   6.0mph /  9.7km/h 85% 0.00in /  0mm
05:54 47.3 °F /  8.5 °C 43.0 °F /  6.1 °C 30.12in /  1019.9hPa NNE 1.0mph /  1.6km/h 6.0mph /  9.7km/h 85% 0.00in /  0mm
05:59 47.5 °F /  8.6 °C 43.2 °F /  6.2 °C 30.11in /  1019.5hPa NNE 2.0mph /  3.2km/h 8.0mph /  12.9km/h 85% 0.00in /  0mm
06:04 48.0 °F /  8.9 °C 43.4 °F /  6.3 °C 30.11in /  1019.5hPa NE 2.0mph /  3.2km/h 10.0mph /  16.1km/h 84% 0.00in /  0mm
06:09 48.3 °F /  9.1 °C 43.1 °F /  6.2 °C 30.12in /  1019.9hPa NE 1.0mph /  1.6km/h 10.0mph /  16.1km/h 82% 0.00in /  0mm
06:14 48.3 °F /  9.1 °C 42.7 °F /  5.9 °C 30.12in /  1019.9hPa NE 1.0mph /  1.6km/h 7.0mph /  11.3km/h 81% 0.00in /  0mm
06:19 48.3 °F /  9.1 °C 42.7 °F /  5.9 °C 30.12in /  1019.9hPa NE 2.0mph /  3.2km/h 8.0mph /  12.9km/h 81% 0.00in /  0mm
06:24 48.3 °F /  9.1 °C 42.7 °F /  5.9 °C 30.12in /  1019.9hPa NE 1.0mph /  1.6km/h 8.0mph /  12.9km/h 81% 0.00in /  0mm
06:29 48.1 °F /  8.9 °C 42.6 °F /  5.9 °C 30.12in /  1019.9hPa Calm   5.0mph /  8km/h 81% 0.00in /  0mm
06:34 47.9 °F /  8.8 °C 42.4 °F /  5.8 °C 30.13in /  1020.2hPa NNE 1.0mph /  1.6km/h 6.0mph /  9.7km/h 81% 0.00in /  0mm
06:39 47.6 °F /  8.7 °C 42.1 °F /  5.6 °C 30.13in /  1020.2hPa Calm   6.0mph /  9.7km/h 81% 0.00in /  0mm
06:44 47.1 °F /  8.4 °C 41.6 °F /  5.3 °C 30.13in /  1020.2hPa Calm   3.0mph /  4.8km/h 81% 0.00in /  0mm
06:49 46.5 °F /  8.1 °C 41.3 °F /  5.2 °C 30.13in /  1020.2hPa Calm   3.0mph /  4.8km/h 82% 0.00in /  0mm
06:54 46.1 °F /  7.8 °C 41.2 °F /  5.1 °C 30.13in /  1020.2hPa Calm   1.0mph /  1.6km/h 83% 0.00in /  0mm
06:59 45.9 °F /  7.7 °C 41.0 °F /  5 °C 30.13in /  1020.2hPa Calm   3.0mph /  4.8km/h 83% 0.00in /  0mm
07:04 45.9 °F /  7.7 °C 41.3 °F /  5.2 °C 30.14in /  1020.5hPa Calm   3.0mph /  4.8km/h 84% 0.00in /  0mm
07:09 45.9 °F /  7.7 °C 41.3 °F /  5.2 °C 30.14in /  1020.5hPa Calm   2.0mph /  3.2km/h 84% 0.00in /  0mm
07:14 45.8 °F /  7.7 °C 41.2 °F /  5.1 °C 30.14in /  1020.5hPa NE 2.0mph /  3.2km/h 7.0mph /  11.3km/h 84% 0.00in /  0mm
07:20 46.0 °F /  7.8 °C 41.4 °F /  5.2 °C 30.14in /  1020.5hPa Calm   9.0mph /  14.5km/h 84% 0.00in /  0mm
07:25 46.2 °F /  7.9 °C 41.3 °F /  5.2 °C 30.14in /  1020.5hPa NNE 1.0mph /  1.6km/h 9.0mph /  14.5km/h 83% 0.00in /  0mm
07:30 46.6 °F /  8.1 °C 41.7 °F /  5.4 °C 30.14in /  1020.5hPa Calm   8.0mph /  12.9km/h 83% 0.00in /  0mm
07:35 46.8 °F /  8.2 °C 41.6 °F /  5.3 °C 30.15in /  1020.9hPa Calm   8.0mph /  12.9km/h 82% 0.00in /  0mm
07:40 46.9 °F /  8.3 °C 41.4 °F /  5.2 °C 30.15in /  1020.9hPa Calm   8.0mph /  12.9km/h 81% 0.00in /  0mm
07:49 46.9 °F /  8.3 °C 41.1 °F /  5.1 °C 30.15in /  1020.9hPa Calm   6.0mph /  9.7km/h 80% 0.00in /  0mm
07:54 46.9 °F /  8.3 °C 40.7 °F /  4.8 °C 30.15in /  1020.9hPa NNE 4.0mph /  6.4km/h 9.0mph /  14.5km/h 79% 0.00in /  0mm
07:59 47.0 °F /  8.3 °C 40.5 °F /  4.7 °C 30.15in /  1020.9hPa NE 1.0mph /  1.6km/h 9.0mph /  14.5km/h 78% 0.00in /  0mm
08:04 47.1 °F /  8.4 °C 40.6 °F /  4.8 °C 30.15in /  1020.9hPa Calm   7.0mph /  11.3km/h 78% 0.00in /  0mm
08:09 47.1 °F /  8.4 °C 40.3 °F /  4.6 °C 30.15in /  1020.9hPa NE 2.0mph /  3.2km/h 8.0mph /  12.9km/h 77% 0.00in /  0mm
08:14 47.0 °F /  8.3 °C 40.2 °F /  4.6 °C 30.16in /  1021.2hPa Calm   8.0mph /  12.9km/h 77% 0.00in /  0mm
08:19 47.1 °F /  8.4 °C 39.6 °F /  4.2 °C 30.16in /  1021.2hPa ENE 1.0mph /  1.6km/h 5.0mph /  8km/h 75% 0.00in /  0mm
08:25 47.5 °F /  8.6 °C 38.9 °F /  3.8 °C 30.16in /  1021.2hPa NE 1.0mph /  1.6km/h 8.0mph /  12.9km/h 72% 0.00in /  0mm
08:35 48.8 °F /  9.3 °C 38.3 °F /  3.5 °C 30.16in /  1021.2hPa NE 1.0mph /  1.6km/h 7.0mph /  11.3km/h 67% 0.00in /  0mm
08:45 50.9 °F /  10.5 °C 38.8 °F /  3.8 °C 30.16in /  1021.2hPa Calm   7.0mph /  11.3km/h 63% 0.00in /  0mm
08:50 51.8 °F /  11 °C 38.8 °F /  3.8 °C 30.16in /  1021.2hPa North 1.0mph /  1.6km/h 7.0mph /  11.3km/h 61% 0.00in /  0mm
08:55 52.1 °F /  11.2 °C 36.4 °F /  2.4 °C 30.16in /  1021.2hPa NE 4.0mph /  6.4km/h 8.0mph /  12.9km/h 55% 0.00in /  0mm
08:59 52.5 °F /  11.4 °C 37.7 °F /  3.2 °C 30.16in /  1021.2hPa Calm   8.0mph /  12.9km/h 57% 0.00in /  0mm
09:04 52.8 °F /  11.6 °C 36.6 °F /  2.6 °C 30.16in /  1021.2hPa NE 2.0mph /  3.2km/h 8.0mph /  12.9km/h 54% 0.00in /  0mm
09:09 53.1 °F /  11.7 °C 36.9 °F /  2.7 °C 30.16in /  1021.2hPa NE 2.0mph /  3.2km/h 8.0mph /  12.9km/h 54% 0.00in /  0mm
09:15 53.4 °F /  11.9 °C 37.2 °F /  2.9 °C 30.16in /  1021.2hPa NE 1.0mph /  1.6km/h 8.0mph /  12.9km/h 54% 0.00in /  0mm
09:19 53.9 °F /  12.2 °C 38.1 °F /  3.4 °C 30.15in /  1020.9hPa NE 1.0mph /  1.6km/h 8.0mph /  12.9km/h 55% 0.00in /  0mm
09:25 54.3 °F /  12.4 °C 36.1 °F /  2.3 °C 30.15in /  1020.9hPa NNE 2.0mph /  3.2km/h 8.0mph /  12.9km/h 50% 0.00in /  0mm
09:29 54.4 °F /  12.4 °C 36.2 °F /  2.3 °C 30.15in /  1020.9hPa NNE 3.0mph /  4.8km/h 9.0mph /  14.5km/h 50% 0.00in /  0mm
09:34 54.2 °F /  12.3 °C 33.9 °F /  1.1 °C 30.15in /  1020.9hPa NE 5.0mph /  8km/h 9.0mph /  14.5km/h 46% 0.00in /  0mm
09:40 54.3 °F /  12.4 °C 35.0 °F /  1.7 °C 30.15in /  1020.9hPa NE 2.0mph /  3.2km/h 9.0mph /  14.5km/h 48% 0.00in /  0mm
09:45 54.6 °F /  12.6 °C 33.7 °F /  0.9 °C 30.15in /  1020.9hPa NNE 1.0mph /  1.6km/h 8.0mph /  12.9km/h 45% 0.00in /  0mm
09:49 55.3 °F /  12.9 °C 33.8 °F /  1 °C 30.15in /  1020.9hPa NNW 1.0mph /  1.6km/h 8.0mph /  12.9km/h 44% 0.00in /  0mm
09:55 55.6 °F /  13.1 °C 33.5 °F /  0.8 °C 30.15in /  1020.9hPa NNE 3.0mph /  4.8km/h 9.0mph /  14.5km/h 43% 0.00in /  0mm
09:59 56.0 °F /  13.3 °C 33.8 °F /  1 °C 30.15in /  1020.9hPa Calm   9.0mph /  14.5km/h 43% 0.00in /  0mm
10:04 56.1 °F /  13.4 °C 34.5 °F /  1.4 °C 30.15in /  1020.9hPa Calm   5.0mph /  8km/h 44% 0.00in /  0mm
10:09 56.2 °F /  13.4 °C 32.8 °F /  0.4 °C 30.15in /  1020.9hPa Calm   8.0mph /  12.9km/h 41% 0.00in /  0mm
10:14 56.6 °F /  13.7 °C 33.2 °F /  0.7 °C 30.15in /  1020.9hPa NNW 1.0mph /  1.6km/h 8.0mph /  12.9km/h 41% 0.00in /  0mm
10:19 57.0 °F /  13.9 °C 32.9 °F /  0.5 °C 30.16in /  1021.2hPa North 1.0mph /  1.6km/h 4.0mph /  6.4km/h 40% 0.00in /  0mm
10:24 57.4 °F /  14.1 °C 32.7 °F /  0.4 °C 30.16in /  1021.2hPa Calm   8.0mph /  12.9km/h 39% 0.00in /  0mm
10:30 58.0 °F /  14.4 °C 32.5 °F /  0.3 °C 30.16in /  1021.2hPa Calm   8.0mph /  12.9km/h 38% 0.00in /  0mm
10:40 59.0 °F /  15 °C 32.8 °F /  0.4 °C 30.16in /  1021.2hPa Calm   8.0mph /  12.9km/h 37% 0.00in /  0mm
10:44 59.0 °F /  15 °C 33.4 °F /  0.8 °C 30.16in /  1021.2hPa NW 4.0mph /  6.4km/h 8.0mph /  12.9km/h 38% 0.00in /  0mm
10:50 59.5 °F /  15.3 °C 33.9 °F /  1.1 °C 30.16in /  1021.2hPa North 1.0mph /  1.6km/h 8.0mph /  12.9km/h 38% 0.00in /  0mm
10:54 59.8 °F /  15.4 °C 32.8 °F /  0.4 °C 30.16in /  1021.2hPa NNE 3.0mph /  4.8km/h 11.0mph /  17.7km/h 36% 0.00in /  0mm
10:59 59.5 °F /  15.3 °C 32.5 °F /  0.3 °C 30.16in /  1021.2hPa NNW 4.0mph /  6.4km/h 11.0mph /  17.7km/h 36% 0.00in /  0mm
11:04 59.5 °F /  15.3 °C 33.2 °F /  0.7 °C 30.16in /  1021.2hPa NNW 5.0mph /  8km/h 10.0mph /  16.1km/h 37% 0.00in /  0mm
11:10 60.2 °F /  15.7 °C 33.8 °F /  1 °C 30.16in /  1021.2hPa North 2.0mph /  3.2km/h 10.0mph /  16.1km/h 37% 0.00in /  0mm
11:14 60.4 °F /  15.8 °C 31.9 °F /  -0.1 °C 30.16in /  1021.2hPa North 1.0mph /  1.6km/h 13.0mph /  20.9km/h 34% 0.00in /  0mm
11:19 60.0 °F /  15.6 °C 30.8 °F /  -0.7 °C 30.16in /  1021.2hPa North 5.0mph /  8km/h 14.0mph /  22.5km/h 33% 0.00in /  0mm
11:25 59.7 °F /  15.4 °C 30.6 °F /  -0.8 °C 30.16in /  1021.2hPa NNE 4.0mph /  6.4km/h 14.0mph /  22.5km/h 33% 0.00in /  0mm
11:35 59.6 °F /  15.3 °C 32.6 °F /  0.3 °C 30.16in /  1021.2hPa North 2.0mph /  3.2km/h 10.0mph /  16.1km/h 36% 0.00in /  0mm
11:40 59.8 °F /  15.4 °C 32.1 °F /  0.1 °C 30.15in /  1020.9hPa North 2.0mph /  3.2km/h 10.0mph /  16.1km/h 35% 0.00in /  0mm
11:44 59.8 °F /  15.4 °C 30.6 °F /  -0.8 °C 30.15in /  1020.9hPa NNW 6.0mph /  9.7km/h 11.0mph /  17.7km/h 33% 0.00in /  0mm
11:49 59.8 °F /  15.4 °C 32.8 °F /  0.4 °C 30.16in /  1021.2hPa NNW 3.0mph /  4.8km/h 11.0mph /  17.7km/h 36% 0.00in /  0mm
11:54 59.8 °F /  15.4 °C 30.6 °F /  -0.8 °C 30.15in /  1020.9hPa WNW 9.0mph /  14.5km/h 17.0mph /  27.4km/h 33% 0.00in /  0mm
11:59 59.4 °F /  15.2 °C 28.8 °F /  -1.8 °C 30.15in /  1020.9hPa North 3.0mph /  4.8km/h 17.0mph /  27.4km/h 31% 0.00in /  0mm
12:04 59.9 °F /  15.5 °C 32.9 °F /  0.5 °C 30.14in /  1020.5hPa NW 2.0mph /  3.2km/h 12.0mph /  19.3km/h 36% 0.00in /  0mm
12:09 59.8 °F /  15.4 °C 29.9 °F /  -1.2 °C 30.14in /  1020.5hPa NW 5.0mph /  8km/h 14.0mph /  22.5km/h 32% 0.00in /  0mm
12:14 59.6 °F /  15.3 °C 29.7 °F /  -1.3 °C 30.14in /  1020.5hPa NNW 4.0mph /  6.4km/h 14.0mph /  22.5km/h 32% 0.00in /  0mm
12:20 59.9 °F /  15.5 °C 27.6 °F /  -2.4 °C 30.15in /  1020.9hPa NW 7.0mph /  11.3km/h 19.0mph /  30.6km/h 29% 0.00in /  0mm
12:24 59.4 °F /  15.2 °C 28.8 °F /  -1.8 °C 30.15in /  1020.9hPa NW 6.0mph /  9.7km/h 19.0mph /  30.6km/h 31% 0.00in /  0mm
12:30 58.8 °F /  14.9 °C 27.4 °F /  -2.6 °C 30.15in /  1020.9hPa WNW 8.0mph /  12.9km/h 17.0mph /  27.4km/h 30% 0.00in /  0mm
12:35 58.2 °F /  14.6 °C 28.5 °F /  -1.9 °C 30.15in /  1020.9hPa NW 7.0mph /  11.3km/h 17.0mph /  27.4km/h 32% 0.00in /  0mm
12:44 58.7 °F /  14.8 °C 28.9 °F /  -1.7 °C 30.15in /  1020.9hPa NNW 6.0mph /  9.7km/h 13.0mph /  20.9km/h 32% 0.00in /  0mm
12:50 59.5 °F /  15.3 °C 29.6 °F /  -1.3 °C 30.14in /  1020.5hPa NNW 4.0mph /  6.4km/h 13.0mph /  20.9km/h 32% 0.00in /  0mm
12:54 60.0 °F /  15.6 °C 27.7 °F /  -2.4 °C 30.14in /  1020.5hPa WNW 8.0mph /  12.9km/h 13.0mph /  20.9km/h 29% 0.00in /  0mm
12:59 59.7 °F /  15.4 °C 29.0 °F /  -1.7 °C 30.14in /  1020.5hPa NW 6.0mph /  9.7km/h 13.0mph /  20.9km/h 31% 0.00in /  0mm
13:04 60.0 °F /  15.6 °C 29.3 °F /  -1.5 °C 30.14in /  1020.5hPa NW 8.0mph /  12.9km/h 14.0mph /  22.5km/h 31% 0.00in /  0mm
13:09 60.3 °F /  15.7 °C 31.8 °F /  -0.1 °C 30.14in /  1020.5hPa NNW 4.0mph /  6.4km/h 14.0mph /  22.5km/h 34% 0.00in /  0mm
13:14 60.6 °F /  15.9 °C 31.3 °F /  -0.4 °C 30.14in /  1020.5hPa NW 5.0mph /  8km/h 12.0mph /  19.3km/h 33% 0.00in /  0mm
13:20 60.3 °F /  15.7 °C 31.1 °F /  -0.5 °C 30.14in /  1020.5hPa NW 6.0mph /  9.7km/h 13.0mph /  20.9km/h 33% 0.00in /  0mm
13:30 60.8 °F /  16 °C 30.8 °F /  -0.7 °C 30.13in /  1020.2hPa NNW 6.0mph /  9.7km/h 13.0mph /  20.9km/h 32% 0.00in /  0mm
13:40 61.2 °F /  16.2 °C 32.6 °F /  0.3 °C 30.13in /  1020.2hPa NNW 3.0mph /  4.8km/h 16.0mph /  25.7km/h 34% 0.00in /  0mm
13:50 62.1 °F /  16.7 °C 31.9 °F /  -0.1 °C 30.12in /  1019.9hPa North 4.0mph /  6.4km/h 10.0mph /  16.1km/h 32% 0.00in /  0mm
13:54 61.9 °F /  16.6 °C 30.9 °F /  -0.6 °C 30.11in /  1019.5hPa NNW 5.0mph /  8km/h 15.0mph /  24.1km/h 31% 0.00in /  0mm
13:59 62.4 °F /  16.9 °C 30.6 °F /  -0.8 °C 30.11in /  1019.5hPa NNW 2.0mph /  3.2km/h 15.0mph /  24.1km/h 30% 0.00in /  0mm
14:04 62.7 °F /  17.1 °C 31.6 °F /  -0.2 °C 30.11in /  1019.5hPa North 3.0mph /  4.8km/h 13.0mph /  20.9km/h 31% 0.00in /  0mm
14:09 63.0 °F /  17.2 °C 31.9 °F /  -0.1 °C 30.11in /  1019.5hPa NNW 2.0mph /  3.2km/h 13.0mph /  20.9km/h 31% 0.00in /  0mm
14:14 62.9 °F /  17.2 °C 31.8 °F /  -0.1 °C 30.11in /  1019.5hPa NW 3.0mph /  4.8km/h 12.0mph /  19.3km/h 31% 0.00in /  0mm
14:19 62.7 °F /  17.1 °C 32.4 °F /  0.2 °C 30.11in /  1019.5hPa NNW 1.0mph /  1.6km/h 12.0mph /  19.3km/h 32% 0.00in /  0mm
14:25 62.0 °F /  16.7 °C 31.0 °F /  -0.6 °C 30.10in /  1019.2hPa North 4.0mph /  6.4km/h 12.0mph /  19.3km/h 31% 0.00in /  0mm
14:35 60.2 °F /  15.7 °C 31.0 °F /  -0.6 °C 30.10in /  1019.2hPa NNW 3.0mph /  4.8km/h 19.0mph /  30.6km/h 33% 0.00in /  0mm
14:40 59.8 °F /  15.4 °C 30.6 °F /  -0.8 °C 30.10in /  1019.2hPa NW 5.0mph /  8km/h 16.0mph /  25.7km/h 33% 0.00in /  0mm
14:45 60.9 °F /  16.1 °C 32.4 °F /  0.2 °C 30.10in /  1019.2hPa NNW 3.0mph /  4.8km/h 9.0mph /  14.5km/h 34% 0.00in /  0mm
14:50 62.1 °F /  16.7 °C 31.9 °F /  -0.1 °C 30.10in /  1019.2hPa NNW 2.0mph /  3.2km/h 9.0mph /  14.5km/h 32% 0.00in /  0mm
14:59 63.3 °F /  17.4 °C 32.2 °F /  0.1 °C 30.10in /  1019.2hPa North 4.0mph /  6.4km/h 15.0mph /  24.1km/h 31% 0.00in /  0mm
15:04 63.1 °F /  17.3 °C 29.5 °F /  -1.4 °C 30.09in /  1018.8hPa NNW 2.0mph /  3.2km/h 15.0mph /  24.1km/h 28% 0.00in /  0mm
15:09 62.2 °F /  16.8 °C 29.6 °F /  -1.3 °C 30.09in /  1018.8hPa North 2.0mph /  3.2km/h 9.0mph /  14.5km/h 29% 0.00in /  0mm
15:14 62.1 °F /  16.7 °C 30.3 °F /  -0.9 °C 30.09in /  1018.8hPa NNE 4.0mph /  6.4km/h 14.0mph /  22.5km/h 30% 0.00in /  0mm
15:19 61.9 °F /  16.6 °C 30.9 °F /  -0.6 °C 30.08in /  1018.5hPa North 1.0mph /  1.6km/h 14.0mph /  22.5km/h 31% 0.00in /  0mm
15:25 62.0 °F /  16.7 °C 31.0 °F /  -0.6 °C 30.08in /  1018.5hPa North 4.0mph /  6.4km/h 11.0mph /  17.7km/h 31% 0.00in /  0mm
15:30 62.8 °F /  17.1 °C 30.9 °F /  -0.6 °C 30.08in /  1018.5hPa North 3.0mph /  4.8km/h 16.0mph /  25.7km/h 30% 0.00in /  0mm
15:35 63.8 °F /  17.7 °C 29.2 °F /  -1.6 °C 30.07in /  1018.2hPa NNE 4.0mph /  6.4km/h 16.0mph /  25.7km/h 27% 0.00in /  0mm
15:44 64.1 °F /  17.8 °C 32.0 °F /  0 °C 30.08in /  1018.5hPa NNW 1.0mph /  1.6km/h 14.0mph /  22.5km/h 30% 0.00in /  0mm
15:49 64.0 °F /  17.8 °C 31.1 °F /  -0.5 °C 30.08in /  1018.5hPa NW 1.0mph /  1.6km/h 14.0mph /  22.5km/h 29% 0.00in /  0mm
15:54 63.9 °F /  17.7 °C 31.0 °F /  -0.6 °C 30.08in /  1018.5hPa North 1.0mph /  1.6km/h 10.0mph /  16.1km/h 29% 0.00in /  0mm
15:59 63.7 °F /  17.6 °C 31.7 °F /  -0.2 °C 30.07in /  1018.2hPa NNE 4.0mph /  6.4km/h 10.0mph /  16.1km/h 30% 0.00in /  0mm
16:04 63.3 °F /  17.4 °C 32.2 °F /  0.1 °C 30.08in /  1018.5hPa North 6.0mph /  9.7km/h 12.0mph /  19.3km/h 31% 0.00in /  0mm
16:09 63.1 °F /  17.3 °C 30.3 °F /  -0.9 °C 30.07in /  1018.2hPa North 3.0mph /  4.8km/h 12.0mph /  19.3km/h 29% 0.00in /  0mm
16:14 63.4 °F /  17.4 °C 30.6 °F /  -0.8 °C 30.07in /  1018.2hPa North 4.0mph /  6.4km/h 11.0mph /  17.7km/h 29% 0.00in /  0mm
16:19 63.8 °F /  17.7 °C 31.8 °F /  -0.1 °C 30.07in /  1018.2hPa NNW 3.0mph /  4.8km/h 12.0mph /  19.3km/h 30% 0.00in /  0mm
16:25 63.6 °F /  17.6 °C 30.8 °F /  -0.7 °C 30.07in /  1018.2hPa North 2.0mph /  3.2km/h 12.0mph /  19.3km/h 29% 0.00in /  0mm
16:30 62.8 °F /  17.1 °C 30.9 °F /  -0.6 °C 30.07in /  1018.2hPa NW 7.0mph /  11.3km/h 13.0mph /  20.9km/h 30% 0.00in /  0mm
16:40 61.4 °F /  16.3 °C 31.3 °F /  -0.4 °C 30.07in /  1018.2hPa NNW 5.0mph /  8km/h 15.0mph /  24.1km/h 32% 0.00in /  0mm
16:49 61.0 °F /  16.1 °C 30.2 °F /  -1 °C 30.07in /  1018.2hPa NNW 5.0mph /  8km/h 12.0mph /  19.3km/h 31% 0.00in /  0mm
16:54 60.9 °F /  16.1 °C 30.1 °F /  -1.1 °C 30.07in /  1018.2hPa NW 5.0mph /  8km/h 12.0mph /  19.3km/h 31% 0.00in /  0mm
16:59 60.8 °F /  16 °C 31.5 °F /  -0.3 °C 30.07in /  1018.2hPa NNW 1.0mph /  1.6km/h 12.0mph /  19.3km/h 33% 0.00in /  0mm
17:04 60.7 °F /  15.9 °C 30.7 °F /  -0.7 °C 30.07in /  1018.2hPa North 5.0mph /  8km/h 11.0mph /  17.7km/h 32% 0.00in /  0mm
17:09 60.1 °F /  15.6 °C 30.9 °F /  -0.6 °C 30.07in /  1018.2hPa North 2.0mph /  3.2km/h 16.0mph /  25.7km/h 33% 0.00in /  0mm
17:14 59.6 °F /  15.3 °C 28.9 °F /  -1.7 °C 30.07in /  1018.2hPa North 3.0mph /  4.8km/h 16.0mph /  25.7km/h 31% 0.00in /  0mm
17:19 59.3 °F /  15.2 °C 30.2 °F /  -1 °C 30.07in /  1018.2hPa Calm   10.0mph /  16.1km/h 33% 0.00in /  0mm
17:24 59.0 °F /  15 °C 28.4 °F /  -2 °C 30.07in /  1018.2hPa North 3.0mph /  4.8km/h 11.0mph /  17.7km/h 31% 0.00in /  0mm
17:30 58.7 °F /  14.8 °C 27.4 °F /  -2.6 °C 30.07in /  1018.2hPa NNW 2.0mph /  3.2km/h 11.0mph /  17.7km/h 30% 0.00in /  0mm
17:39 57.7 °F /  14.3 °C 27.3 °F /  -2.6 °C 30.07in /  1018.2hPa NNE 1.0mph /  1.6km/h 9.0mph /  14.5km/h 31% 0.00in /  0mm
17:44 57.5 °F /  14.2 °C 27.1 °F /  -2.7 °C 30.07in /  1018.2hPa North 1.0mph /  1.6km/h 9.0mph /  14.5km/h 31% 0.00in /  0mm
17:49 57.4 °F /  14.1 °C 26.2 °F /  -3.2 °C 30.07in /  1018.2hPa NNW 1.0mph /  1.6km/h 6.0mph /  9.7km/h 30% 0.00in /  0mm
17:54 57.5 °F /  14.2 °C 27.1 °F /  -2.7 °C 30.07in /  1018.2hPa NNE 1.0mph /  1.6km/h 9.0mph /  14.5km/h 31% 0.00in /  0mm
17:59 57.6 °F /  14.2 °C 27.2 °F /  -2.7 °C 30.07in /  1018.2hPa North 1.0mph /  1.6km/h 9.0mph /  14.5km/h 31% 0.00in /  0mm
18:04 57.6 °F /  14.2 °C 25.6 °F /  -3.6 °C 30.07in /  1018.2hPa NNW 4.0mph /  6.4km/h 10.0mph /  16.1km/h 29% 0.00in /  0mm
18:09 57.6 °F /  14.2 °C 27.2 °F /  -2.7 °C 30.07in /  1018.2hPa NNW 2.0mph /  3.2km/h 10.0mph /  16.1km/h 31% 0.00in /  0mm
18:14 57.6 °F /  14.2 °C 25.6 °F /  -3.6 °C 30.08in /  1018.5hPa NNW 2.0mph /  3.2km/h 8.0mph /  12.9km/h 29% 0.00in /  0mm
18:19 57.5 °F /  14.2 °C 25.5 °F /  -3.6 °C 30.08in /  1018.5hPa North 2.0mph /  3.2km/h 9.0mph /  14.5km/h 29% 0.00in /  0mm
18:25 57.1 °F /  13.9 °C 26.0 °F /  -3.3 °C 30.07in /  1018.2hPa Calm   9.0mph /  14.5km/h 30% 0.00in /  0mm
18:34 56.3 °F /  13.5 °C 24.5 °F /  -4.2 °C 30.07in /  1018.2hPa North 1.0mph /  1.6km/h 7.0mph /  11.3km/h 29% 0.00in /  0mm
18:39 55.8 °F /  13.2 °C 24.8 °F /  -4 °C 30.07in /  1018.2hPa Calm   7.0mph /  11.3km/h 30% 0.00in /  0mm
18:45 55.4 °F /  13 °C 24.5 °F /  -4.2 °C 30.08in /  1018.5hPa NNW 1.0mph /  1.6km/h 7.0mph /  11.3km/h 30% 0.00in /  0mm
18:49 55.0 °F /  12.8 °C 24.1 °F /  -4.4 °C 30.08in /  1018.5hPa NNW 3.0mph /  4.8km/h 12.0mph /  19.3km/h 30% 0.00in /  0mm
18:55 54.7 °F /  12.6 °C 26.9 °F /  -2.8 °C 30.08in /  1018.5hPa NNE 2.0mph /  3.2km/h 12.0mph /  19.3km/h 34% 0.00in /  0mm
19:05 53.8 °F /  12.1 °C 24.6 °F /  -4.1 °C 30.08in /  1018.5hPa NNW 1.0mph /  1.6km/h 5.0mph /  8km/h 32% 0.00in /  0mm
19:10 53.4 °F /  11.9 °C 25.0 °F /  -3.9 °C 30.08in /  1018.5hPa Calm   5.0mph /  8km/h 33% 0.00in /  0mm
19:15 52.9 °F /  11.6 °C 26.0 °F /  -3.3 °C 30.08in /  1018.5hPa Calm   6.0mph /  9.7km/h 35% 0.00in /  0mm
19:20 52.4 °F /  11.3 °C 26.2 °F /  -3.2 °C 30.08in /  1018.5hPa NNW 1.0mph /  1.6km/h 6.0mph /  9.7km/h 36% 0.00in /  0mm
19:25 52.3 °F /  11.3 °C 26.1 °F /  -3.3 °C 30.08in /  1018.5hPa Calm   7.0mph /  11.3km/h 36% 0.00in /  0mm
19:30 52.3 °F /  11.3 °C 25.5 °F /  -3.6 °C 30.08in /  1018.5hPa NNW 3.0mph /  4.8km/h 10.0mph /  16.1km/h 35% 0.00in /  0mm
19:35 52.7 °F /  11.5 °C 25.8 °F /  -3.4 °C 30.08in /  1018.5hPa Calm   10.0mph /  16.1km/h 35% 0.00in /  0mm
19:40 52.8 °F /  11.6 °C 25.9 °F /  -3.4 °C 30.09in /  1018.8hPa NW 2.0mph /  3.2km/h 9.0mph /  14.5km/h 35% 0.00in /  0mm
19:50 52.2 °F /  11.2 °C 26.7 °F /  -2.9 °C 30.08in /  1018.5hPa NNW 1.0mph /  1.6km/h 5.0mph /  8km/h 37% 0.00in /  0mm
19:55 51.8 °F /  11 °C 25.0 °F /  -3.9 °C 30.08in /  1018.5hPa NNW 1.0mph /  1.6km/h 6.0mph /  9.7km/h 35% 0.00in /  0mm
20:05 51.4 °F /  10.8 °C 24.7 °F /  -4.1 °C 30.08in /  1018.5hPa Calm   4.0mph /  6.4km/h 35% 0.00in /  0mm
20:10 51.2 °F /  10.7 °C 23.8 °F /  -4.6 °C 30.08in /  1018.5hPa Calm   4.0mph /  6.4km/h 34% 0.00in /  0mm
20:15 51.0 °F /  10.6 °C 25.0 °F /  -3.9 °C 30.08in /  1018.5hPa North 1.0mph /  1.6km/h 5.0mph /  8km/h 36% 0.00in /  0mm
20:20 51.0 °F /  10.6 °C 25.0 °F /  -3.9 °C 30.09in /  1018.8hPa Calm   7.0mph /  11.3km/h 36% 0.00in /  0mm
20:25 50.9 °F /  10.5 °C 24.9 °F /  -3.9 °C 30.09in /  1018.8hPa NNE 1.0mph /  1.6km/h 7.0mph /  11.3km/h 36% 0.00in /  0mm
20:30 50.8 °F /  10.4 °C 26.7 °F /  -2.9 °C 30.09in /  1018.8hPa Calm   7.0mph /  11.3km/h 39% 0.00in /  0mm
20:35 50.5 °F /  10.3 °C 26.5 °F /  -3.1 °C 30.09in /  1018.8hPa Calm   4.0mph /  6.4km/h 39% 0.00in /  0mm
20:40 50.3 °F /  10.2 °C 27.5 °F /  -2.5 °C 30.09in /  1018.8hPa North 1.0mph /  1.6km/h 6.0mph /  9.7km/h 41% 0.00in /  0mm
20:50 49.4 °F /  9.7 °C 26.1 °F /  -3.3 °C 30.09in /  1018.8hPa Calm   1.0mph /  1.6km/h 40% 0.00in /  0mm
21:00 49.0 °F /  9.4 °C 26.9 °F /  -2.8 °C 30.09in /  1018.8hPa Calm   1.0mph /  1.6km/h 42% 0.00in /  0mm
21:05 48.8 °F /  9.3 °C 26.7 °F /  -2.9 °C 30.09in /  1018.8hPa Calm   1.0mph /  1.6km/h 42% 0.00in /  0mm
21:10 48.5 °F /  9.2 °C 27.0 °F /  -2.8 °C 30.09in /  1018.8hPa Calm   1.0mph /  1.6km/h 43% 0.00in /  0mm
21:15 48.3 °F /  9.1 °C 26.8 °F /  -2.9 °C 30.09in /  1018.8hPa Calm   1.0mph /  1.6km/h 43% 0.00in /  0mm
21:20 48.2 °F /  9 °C 27.3 °F /  -2.6 °C 30.09in /  1018.8hPa Calm   3.0mph /  4.8km/h 44% 0.00in /  0mm
21:25 48.3 °F /  9.1 °C 26.8 °F /  -2.9 °C 30.10in /  1019.2hPa Calm   3.0mph /  4.8km/h 43% 0.00in /  0mm
21:30 48.3 °F /  9.1 °C 26.3 °F /  -3.2 °C 30.10in /  1019.2hPa NE 1.0mph /  1.6km/h 3.0mph /  4.8km/h 42% 0.00in /  0mm
21:35 48.2 °F /  9 °C 26.2 °F /  -3.2 °C 30.09in /  1018.8hPa Calm   5.0mph /  8km/h 42% 0.00in /  0mm
21:40 48.1 °F /  8.9 °C 26.7 °F /  -2.9 °C 30.10in /  1019.2hPa Calm   5.0mph /  8km/h 43% 0.00in /  0mm
21:45 47.8 °F /  8.8 °C 25.8 °F /  -3.4 °C 30.10in /  1019.2hPa Calm   4.0mph /  6.4km/h 42% 0.00in /  0mm
21:50 47.5 °F /  8.6 °C 26.1 °F /  -3.3 °C 30.10in /  1019.2hPa Calm   5.0mph /  8km/h 43% 0.00in /  0mm
22:00 47.2 °F /  8.4 °C 24.7 °F /  -4.1 °C 30.09in /  1018.8hPa Calm   4.0mph /  6.4km/h 41% 0.00in /  0mm
22:05 47.1 °F /  8.4 °C 24.0 °F /  -4.4 °C 30.10in /  1019.2hPa Calm   3.0mph /  4.8km/h 40% 0.00in /  0mm
22:10 46.9 °F /  8.3 °C 21.3 °F /  -5.9 °C 30.10in /  1019.2hPa North 1.0mph /  1.6km/h 4.0mph /  6.4km/h 36% 0.00in /  0mm
22:15 47.0 °F /  8.3 °C 23.3 °F /  -4.8 °C 30.09in /  1018.8hPa Calm   4.0mph /  6.4km/h 39% 0.00in /  0mm
22:20 46.9 °F /  8.3 °C 23.2 °F /  -4.9 °C 30.10in /  1019.2hPa Calm   2.0mph /  3.2km/h 39% 0.00in /  0mm
22:25 46.8 °F /  8.2 °C 23.1 °F /  -4.9 °C 30.10in /  1019.2hPa Calm   2.0mph /  3.2km/h 39% 0.00in /  0mm
22:30 46.6 °F /  8.1 °C 21.7 °F /  -5.7 °C 30.09in /  1018.8hPa NNE 1.0mph /  1.6km/h 5.0mph /  8km/h 37% 0.00in /  0mm
22:35 46.5 °F /  8.1 °C 24.6 °F /  -4.1 °C 30.10in /  1019.2hPa NNE 1.0mph /  1.6km/h 6.0mph /  9.7km/h 42% 0.00in /  0mm
22:40 46.2 °F /  7.9 °C 23.8 °F /  -4.6 °C 30.10in /  1019.2hPa NNE 1.0mph /  1.6km/h 7.0mph /  11.3km/h 41% 0.00in /  0mm
22:45 45.9 °F /  7.7 °C 22.3 °F /  -5.4 °C 30.10in /  1019.2hPa Calm   7.0mph /  11.3km/h 39% 0.00in /  0mm
22:50 45.8 °F /  7.7 °C 22.8 °F /  -5.1 °C 30.10in /  1019.2hPa Calm   6.0mph /  9.7km/h 40% 0.00in /  0mm
22:55 45.7 °F /  7.6 °C 23.3 °F /  -4.8 °C 30.10in /  1019.2hPa Calm   4.0mph /  6.4km/h 41% 0.00in /  0mm
23:00 45.5 °F /  7.5 °C 21.4 °F /  -5.9 °C 30.10in /  1019.2hPa Calm   4.0mph /  6.4km/h 38% 0.00in /  0mm
23:05 45.4 °F /  7.4 °C 21.9 °F /  -5.6 °C 30.10in /  1019.2hPa NE 1.0mph /  1.6km/h 6.0mph /  9.7km/h 39% 0.00in /  0mm
23:10 45.3 °F /  7.4 °C 22.4 °F /  -5.3 °C 30.10in /  1019.2hPa NE 1.0mph /  1.6km/h 9.0mph /  14.5km/h 40% 0.00in /  0mm
23:15 45.1 °F /  7.3 °C 22.2 °F /  -5.4 °C 30.10in /  1019.2hPa North 1.0mph /  1.6km/h 9.0mph /  14.5km/h 40% 0.00in /  0mm
23:20 45.0 °F /  7.2 °C 22.7 °F /  -5.2 °C 30.10in /  1019.2hPa Calm   5.0mph /  8km/h 41% 0.00in /  0mm
23:25 44.7 °F /  7.1 °C 21.9 °F /  -5.6 °C 30.10in /  1019.2hPa Calm   5.0mph /  8km/h 40% 0.00in /  0mm
23:30 44.7 °F /  7.1 °C 21.3 °F /  -5.9 °C 30.10in /  1019.2hPa NE 1.0mph /  1.6km/h 5.0mph /  8km/h 39% 0.00in /  0mm
23:35 44.9 °F /  7.2 °C 22.6 °F /  -5.2 °C 30.10in /  1019.2hPa Calm   7.0mph /  11.3km/h 41% 0.00in /  0mm
23:40 44.9 °F /  7.2 °C 20.2 °F /  -6.6 °C 30.10in /  1019.2hPa NE 2.0mph /  3.2km/h 8.0mph /  12.9km/h 37% 0.00in /  0mm
23:50 45.6 °F /  7.6 °C 20.8 °F /  -6.2 °C 30.10in /  1019.2hPa NE 1.0mph /  1.6km/h 11.0mph /  17.7km/h 37% 0.00in /  0mm
23:55 45.5 °F /  7.5 °C 21.4 °F /  -5.9 °C 30.10in /  1019.2hPa NNE 1.0mph /  1.6km/h 7.0mph /  11.3km/h 38% 0.00in /  0mm
Westford Weather
Compliments of Weather Underground

 
 
Current Radar Loop:

Copyright © WestfordWeather.net 2007-2014. All rights reserved.